sensor_id;sensor_type;location;lat;lon;timestamp;P1;durP1;ratioP1;P2;durP2;ratioP2
52432;SDS011;38352;53.244;6.594;2023-12-29T00:00:05;12.63;;;3.78;;
52432;SDS011;38352;53.244;6.594;2023-12-29T00:02:31;14.57;;;3.85;;
52432;SDS011;38352;53.244;6.594;2023-12-29T00:04:57;16.58;;;3.42;;
52432;SDS011;38352;53.244;6.594;2023-12-29T00:07:23;14.73;;;3.78;;
52432;SDS011;38352;53.244;6.594;2023-12-29T00:09:49;14.00;;;3.75;;
52432;SDS011;38352;53.244;6.594;2023-12-29T00:12:15;11.68;;;3.22;;
52432;SDS011;38352;53.244;6.594;2023-12-29T00:14:41;9.45;;;3.20;;
52432;SDS011;38352;53.244;6.594;2023-12-29T00:17:08;12.88;;;3.38;;
52432;SDS011;38352;53.244;6.594;2023-12-29T00:19:34;14.45;;;4.18;;
52432;SDS011;38352;53.244;6.594;2023-12-29T00:22:00;13.43;;;3.40;;
52432;SDS011;38352;53.244;6.594;2023-12-29T00:24:28;12.88;;;3.50;;
52432;SDS011;38352;53.244;6.594;2023-12-29T00:26:56;9.73;;;3.03;;
52432;SDS011;38352;53.244;6.594;2023-12-29T00:29:23;12.43;;;3.08;;
52432;SDS011;38352;53.244;6.594;2023-12-29T00:31:50;17.20;;;3.95;;
52432;SDS011;38352;53.244;6.594;2023-12-29T00:34:16;12.32;;;4.95;;
52432;SDS011;38352;53.244;6.594;2023-12-29T00:36:42;16.17;;;3.67;;
52432;SDS011;38352;53.244;6.594;2023-12-29T00:39:08;15.15;;;3.83;;
52432;SDS011;38352;53.244;6.594;2023-12-29T00:41:34;10.82;;;3.67;;
52432;SDS011;38352;53.244;6.594;2023-12-29T00:44:00;11.05;;;4.05;;
52432;SDS011;38352;53.244;6.594;2023-12-29T00:46:26;12.40;;;3.85;;
52432;SDS011;38352;53.244;6.594;2023-12-29T00:48:52;13.52;;;3.88;;
52432;SDS011;38352;53.244;6.594;2023-12-29T00:51:18;15.05;;;5.32;;
52432;SDS011;38352;53.244;6.594;2023-12-29T00:53:44;13.90;;;4.10;;
52432;SDS011;38352;53.244;6.594;2023-12-29T00:56:11;18.10;;;4.18;;
52432;SDS011;38352;53.244;6.594;2023-12-29T00:58:37;14.82;;;3.92;;
52432;SDS011;38352;53.244;6.594;2023-12-29T01:01:03;14.52;;;4.40;;
52432;SDS011;38352;53.244;6.594;2023-12-29T01:03:30;16.00;;;4.25;;
52432;SDS011;38352;53.244;6.594;2023-12-29T01:05:56;16.27;;;3.70;;
52432;SDS011;38352;53.244;6.594;2023-12-29T01:08:23;22.85;;;4.75;;
52432;SDS011;38352;53.244;6.594;2023-12-29T01:10:49;12.98;;;3.28;;
52432;SDS011;38352;53.244;6.594;2023-12-29T01:13:15;12.07;;;3.10;;
52432;SDS011;38352;53.244;6.594;2023-12-29T01:15:41;12.80;;;3.47;;
52432;SDS011;38352;53.244;6.594;2023-12-29T01:18:10;11.93;;;2.92;;
52432;SDS011;38352;53.244;6.594;2023-12-29T01:20:36;15.60;;;3.45;;
52432;SDS011;38352;53.244;6.594;2023-12-29T01:23:04;11.05;;;3.33;;
52432;SDS011;38352;53.244;6.594;2023-12-29T01:25:30;11.20;;;3.17;;
52432;SDS011;38352;53.244;6.594;2023-12-29T01:27:56;12.10;;;3.28;;
52432;SDS011;38352;53.244;6.594;2023-12-29T01:30:23;13.55;;;3.33;;
52432;SDS011;38352;53.244;6.594;2023-12-29T01:32:49;12.15;;;3.13;;
52432;SDS011;38352;53.244;6.594;2023-12-29T01:35:15;13.93;;;3.45;;
52432;SDS011;38352;53.244;6.594;2023-12-29T01:37:41;12.13;;;4.35;;
52432;SDS011;38352;53.244;6.594;2023-12-29T01:40:08;16.40;;;4.45;;
52432;SDS011;38352;53.244;6.594;2023-12-29T01:42:34;14.90;;;3.45;;
52432;SDS011;38352;53.244;6.594;2023-12-29T01:45:00;17.00;;;4.70;;
52432;SDS011;38352;53.244;6.594;2023-12-29T01:47:26;11.20;;;3.70;;
52432;SDS011;38352;53.244;6.594;2023-12-29T01:49:53;14.25;;;4.60;;
52432;SDS011;38352;53.244;6.594;2023-12-29T01:52:19;14.27;;;4.07;;
52432;SDS011;38352;53.244;6.594;2023-12-29T01:54:47;25.45;;;5.00;;
52432;SDS011;38352;53.244;6.594;2023-12-29T01:57:13;15.68;;;3.90;;
52432;SDS011;38352;53.244;6.594;2023-12-29T01:59:39;14.27;;;3.45;;
52432;SDS011;38352;53.244;6.594;2023-12-29T02:02:06;11.20;;;3.30;;
52432;SDS011;38352;53.244;6.594;2023-12-29T02:04:32;9.40;;;2.65;;
52432;SDS011;38352;53.244;6.594;2023-12-29T02:06:59;9.00;;;2.15;;
52432;SDS011;38352;53.244;6.594;2023-12-29T02:09:25;9.63;;;1.90;;
52432;SDS011;38352;53.244;6.594;2023-12-29T02:11:52;6.32;;;1.88;;
52432;SDS011;38352;53.244;6.594;2023-12-29T02:14:18;9.45;;;2.22;;
52432;SDS011;38352;53.244;6.594;2023-12-29T02:19:36;5.80;;;1.40;;
52432;SDS011;38352;53.244;6.594;2023-12-29T02:22:05;7.43;;;1.90;;
52432;SDS011;38352;53.244;6.594;2023-12-29T02:24:33;3.70;;;1.65;;
52432;SDS011;38352;53.244;6.594;2023-12-29T02:27:20;5.28;;;1.67;;
52432;SDS011;38352;53.244;6.594;2023-12-29T02:30:01;5.28;;;1.35;;
52432;SDS011;38352;53.244;6.594;2023-12-29T02:32:28;8.32;;;1.60;;
52432;SDS011;38352;53.244;6.594;2023-12-29T02:34:54;7.72;;;1.80;;
52432;SDS011;38352;53.244;6.594;2023-12-29T02:37:21;9.10;;;1.67;;
52432;SDS011;38352;53.244;6.594;2023-12-29T02:39:49;9.05;;;2.15;;
52432;SDS011;38352;53.244;6.594;2023-12-29T02:42:15;13.05;;;2.35;;
52432;SDS011;38352;53.244;6.594;2023-12-29T02:44:41;10.90;;;2.67;;
52432;SDS011;38352;53.244;6.594;2023-12-29T02:47:07;12.55;;;2.47;;
52432;SDS011;38352;53.244;6.594;2023-12-29T02:49:33;9.95;;;2.17;;
52432;SDS011;38352;53.244;6.594;2023-12-29T02:51:59;10.02;;;2.53;;
52432;SDS011;38352;53.244;6.594;2023-12-29T02:54:25;9.88;;;2.28;;
52432;SDS011;38352;53.244;6.594;2023-12-29T02:56:51;13.35;;;2.55;;
52432;SDS011;38352;53.244;6.594;2023-12-29T02:59:17;13.57;;;2.70;;
52432;SDS011;38352;53.244;6.594;2023-12-29T03:01:44;10.07;;;2.70;;
52432;SDS011;38352;53.244;6.594;2023-12-29T03:04:10;11.20;;;2.78;;
52432;SDS011;38352;53.244;6.594;2023-12-29T03:06:36;13.90;;;2.70;;
52432;SDS011;38352;53.244;6.594;2023-12-29T03:09:02;13.07;;;3.25;;
52432;SDS011;38352;53.244;6.594;2023-12-29T03:11:29;17.58;;;3.50;;
52432;SDS011;38352;53.244;6.594;2023-12-29T03:13:55;18.17;;;3.50;;
52432;SDS011;38352;53.244;6.594;2023-12-29T03:16:21;16.35;;;3.53;;
52432;SDS011;38352;53.244;6.594;2023-12-29T03:18:47;14.55;;;4.78;;
52432;SDS011;38352;53.244;6.594;2023-12-29T03:21:13;19.77;;;4.00;;
52432;SDS011;38352;53.244;6.594;2023-12-29T03:23:39;24.27;;;4.18;;
52432;SDS011;38352;53.244;6.594;2023-12-29T03:26:05;17.70;;;4.50;;
52432;SDS011;38352;53.244;6.594;2023-12-29T03:28:31;31.67;;;5.85;;
52432;SDS011;38352;53.244;6.594;2023-12-29T03:30:57;23.88;;;4.13;;
52432;SDS011;38352;53.244;6.594;2023-12-29T03:33:23;22.92;;;4.15;;
52432;SDS011;38352;53.244;6.594;2023-12-29T03:35:50;27.10;;;4.25;;
52432;SDS011;38352;53.244;6.594;2023-12-29T03:38:16;24.67;;;4.82;;
52432;SDS011;38352;53.244;6.594;2023-12-29T03:40:42;26.40;;;4.68;;
52432;SDS011;38352;53.244;6.594;2023-12-29T03:43:08;18.55;;;4.63;;
52432;SDS011;38352;53.244;6.594;2023-12-29T03:45:34;19.65;;;5.50;;
52432;SDS011;38352;53.244;6.594;2023-12-29T03:48:00;20.90;;;4.82;;
52432;SDS011;38352;53.244;6.594;2023-12-29T03:50:26;25.58;;;4.68;;
52432;SDS011;38352;53.244;6.594;2023-12-29T03:52:52;21.65;;;3.65;;
52432;SDS011;38352;53.244;6.594;2023-12-29T03:55:18;14.57;;;3.30;;
52432;SDS011;38352;53.244;6.594;2023-12-29T03:57:44;19.48;;;3.83;;
52432;SDS011;38352;53.244;6.594;2023-12-29T04:00:11;17.23;;;4.40;;
52432;SDS011;38352;53.244;6.594;2023-12-29T04:02:37;18.30;;;4.25;;
52432;SDS011;38352;53.244;6.594;2023-12-29T04:05:03;12.35;;;3.17;;
52432;SDS011;38352;53.244;6.594;2023-12-29T04:07:30;23.00;;;4.82;;
52432;SDS011;38352;53.244;6.594;2023-12-29T04:09:57;16.33;;;4.07;;
52432;SDS011;38352;53.244;6.594;2023-12-29T04:12:23;21.20;;;4.88;;
52432;SDS011;38352;53.244;6.594;2023-12-29T04:14:49;30.60;;;5.43;;
52432;SDS011;38352;53.244;6.594;2023-12-29T04:17:15;22.77;;;4.78;;
52432;SDS011;38352;53.244;6.594;2023-12-29T04:19:41;20.98;;;3.97;;
52432;SDS011;38352;53.244;6.594;2023-12-29T04:22:08;22.90;;;4.25;;
52432;SDS011;38352;53.244;6.594;2023-12-29T04:24:34;19.30;;;4.40;;
52432;SDS011;38352;53.244;6.594;2023-12-29T04:27:00;20.15;;;3.97;;
52432;SDS011;38352;53.244;6.594;2023-12-29T04:29:26;25.30;;;4.30;;
52432;SDS011;38352;53.244;6.594;2023-12-29T04:31:53;22.02;;;4.47;;
52432;SDS011;38352;53.244;6.594;2023-12-29T04:34:19;22.42;;;3.45;;
52432;SDS011;38352;53.244;6.594;2023-12-29T04:36:45;26.75;;;4.45;;
52432;SDS011;38352;53.244;6.594;2023-12-29T04:39:11;17.33;;;4.00;;
52432;SDS011;38352;53.244;6.594;2023-12-29T04:41:37;28.10;;;4.75;;
52432;SDS011;38352;53.244;6.594;2023-12-29T04:44:03;20.77;;;4.57;;
52432;SDS011;38352;53.244;6.594;2023-12-29T04:46:30;16.48;;;3.50;;
52432;SDS011;38352;53.244;6.594;2023-12-29T04:48:56;24.20;;;4.63;;
52432;SDS011;38352;53.244;6.594;2023-12-29T04:51:22;20.63;;;4.13;;
52432;SDS011;38352;53.244;6.594;2023-12-29T04:53:48;22.38;;;4.35;;
52432;SDS011;38352;53.244;6.594;2023-12-29T04:56:14;23.00;;;3.80;;
52432;SDS011;38352;53.244;6.594;2023-12-29T04:58:40;20.52;;;3.78;;
52432;SDS011;38352;53.244;6.594;2023-12-29T05:01:06;18.73;;;4.47;;
52432;SDS011;38352;53.244;6.594;2023-12-29T05:03:33;16.10;;;4.78;;
52432;SDS011;38352;53.244;6.594;2023-12-29T05:05:59;20.95;;;4.25;;
52432;SDS011;38352;53.244;6.594;2023-12-29T05:08:25;17.88;;;3.63;;
52432;SDS011;38352;53.244;6.594;2023-12-29T05:10:51;16.70;;;4.05;;
52432;SDS011;38352;53.244;6.594;2023-12-29T05:13:17;22.13;;;4.70;;
52432;SDS011;38352;53.244;6.594;2023-12-29T05:15:43;16.10;;;3.08;;
52432;SDS011;38352;53.244;6.594;2023-12-29T05:18:10;17.42;;;3.67;;
52432;SDS011;38352;53.244;6.594;2023-12-29T05:20:36;16.27;;;3.45;;
52432;SDS011;38352;53.244;6.594;2023-12-29T05:23:02;16.13;;;3.85;;
52432;SDS011;38352;53.244;6.594;2023-12-29T05:25:29;18.05;;;3.67;;
52432;SDS011;38352;53.244;6.594;2023-12-29T05:27:55;16.75;;;3.80;;
52432;SDS011;38352;53.244;6.594;2023-12-29T05:30:21;19.20;;;3.55;;
52432;SDS011;38352;53.244;6.594;2023-12-29T05:32:47;17.70;;;4.90;;
52432;SDS011;38352;53.244;6.594;2023-12-29T05:35:13;16.15;;;4.07;;
52432;SDS011;38352;53.244;6.594;2023-12-29T05:37:39;22.63;;;4.43;;
52432;SDS011;38352;53.244;6.594;2023-12-29T05:40:05;21.58;;;3.78;;
52432;SDS011;38352;53.244;6.594;2023-12-29T05:42:31;18.80;;;3.97;;
52432;SDS011;38352;53.244;6.594;2023-12-29T05:44:57;21.02;;;3.85;;
52432;SDS011;38352;53.244;6.594;2023-12-29T05:47:23;21.75;;;4.57;;
52432;SDS011;38352;53.244;6.594;2023-12-29T05:49:49;20.95;;;4.28;;
52432;SDS011;38352;53.244;6.594;2023-12-29T05:52:15;15.70;;;5.10;;
52432;SDS011;38352;53.244;6.594;2023-12-29T05:54:41;18.58;;;4.47;;
52432;SDS011;38352;53.244;6.594;2023-12-29T05:57:08;19.50;;;3.72;;
52432;SDS011;38352;53.244;6.594;2023-12-29T05:59:34;16.98;;;5.45;;
52432;SDS011;38352;53.244;6.594;2023-12-29T06:02:00;18.73;;;4.30;;
52432;SDS011;38352;53.244;6.594;2023-12-29T06:04:26;24.55;;;4.75;;
52432;SDS011;38352;53.244;6.594;2023-12-29T06:06:52;14.35;;;4.05;;
52432;SDS011;38352;53.244;6.594;2023-12-29T06:09:18;14.93;;;3.70;;
52432;SDS011;38352;53.244;6.594;2023-12-29T06:11:45;16.20;;;4.15;;
52432;SDS011;38352;53.244;6.594;2023-12-29T06:14:11;21.77;;;5.63;;
52432;SDS011;38352;53.244;6.594;2023-12-29T06:16:37;21.17;;;4.70;;
52432;SDS011;38352;53.244;6.594;2023-12-29T06:19:03;24.35;;;5.13;;
52432;SDS011;38352;53.244;6.594;2023-12-29T06:21:29;19.40;;;3.58;;
52432;SDS011;38352;53.244;6.594;2023-12-29T06:23:55;25.90;;;4.80;;
52432;SDS011;38352;53.244;6.594;2023-12-29T06:26:21;19.55;;;4.25;;
52432;SDS011;38352;53.244;6.594;2023-12-29T06:28:48;18.90;;;4.57;;
52432;SDS011;38352;53.244;6.594;2023-12-29T06:31:14;18.40;;;3.50;;
52432;SDS011;38352;53.244;6.594;2023-12-29T06:33:40;24.92;;;4.45;;
52432;SDS011;38352;53.244;6.594;2023-12-29T06:36:07;19.08;;;4.05;;
52432;SDS011;38352;53.244;6.594;2023-12-29T06:38:33;20.85;;;4.45;;
52432;SDS011;38352;53.244;6.594;2023-12-29T06:41:03;21.95;;;4.72;;
52432;SDS011;38352;53.244;6.594;2023-12-29T06:43:29;16.58;;;4.65;;
52432;SDS011;38352;53.244;6.594;2023-12-29T06:45:55;20.27;;;3.55;;
52432;SDS011;38352;53.244;6.594;2023-12-29T06:48:22;17.52;;;3.40;;
52432;SDS011;38352;53.244;6.594;2023-12-29T06:50:48;22.67;;;4.07;;
52432;SDS011;38352;53.244;6.594;2023-12-29T06:53:14;22.65;;;3.95;;
52432;SDS011;38352;53.244;6.594;2023-12-29T06:55:40;18.52;;;3.67;;
52432;SDS011;38352;53.244;6.594;2023-12-29T06:58:06;18.52;;;3.88;;
52432;SDS011;38352;53.244;6.594;2023-12-29T07:00:33;18.48;;;3.67;;
52432;SDS011;38352;53.244;6.594;2023-12-29T07:03:00;21.67;;;5.20;;
52432;SDS011;38352;53.244;6.594;2023-12-29T07:05:26;26.73;;;5.38;;
52432;SDS011;38352;53.244;6.594;2023-12-29T07:07:52;28.13;;;4.38;;
52432;SDS011;38352;53.244;6.594;2023-12-29T07:10:18;20.27;;;4.00;;
52432;SDS011;38352;53.244;6.594;2023-12-29T07:12:45;19.95;;;5.13;;
52432;SDS011;38352;53.244;6.594;2023-12-29T07:15:11;17.17;;;3.38;;
52432;SDS011;38352;53.244;6.594;2023-12-29T07:17:39;23.05;;;5.57;;
52432;SDS011;38352;53.244;6.594;2023-12-29T07:20:05;15.68;;;3.28;;
52432;SDS011;38352;53.244;6.594;2023-12-29T07:22:32;20.23;;;4.10;;
52432;SDS011;38352;53.244;6.594;2023-12-29T07:24:58;20.42;;;5.82;;
52432;SDS011;38352;53.244;6.594;2023-12-29T07:27:24;23.85;;;3.90;;
52432;SDS011;38352;53.244;6.594;2023-12-29T07:29:50;29.55;;;5.13;;
52432;SDS011;38352;53.244;6.594;2023-12-29T07:32:17;21.02;;;4.18;;
52432;SDS011;38352;53.244;6.594;2023-12-29T07:34:43;15.23;;;4.18;;
52432;SDS011;38352;53.244;6.594;2023-12-29T07:37:09;15.77;;;3.97;;
52432;SDS011;38352;53.244;6.594;2023-12-29T07:39:36;19.75;;;5.00;;
52432;SDS011;38352;53.244;6.594;2023-12-29T07:42:02;17.38;;;4.63;;
52432;SDS011;38352;53.244;6.594;2023-12-29T07:44:28;25.60;;;6.45;;
52432;SDS011;38352;53.244;6.594;2023-12-29T07:46:56;28.83;;;5.00;;
52432;SDS011;38352;53.244;6.594;2023-12-29T07:49:22;22.10;;;4.60;;
52432;SDS011;38352;53.244;6.594;2023-12-29T07:51:48;21.63;;;4.35;;
52432;SDS011;38352;53.244;6.594;2023-12-29T07:54:15;26.65;;;4.57;;
52432;SDS011;38352;53.244;6.594;2023-12-29T07:56:41;13.98;;;4.05;;
52432;SDS011;38352;53.244;6.594;2023-12-29T07:59:07;26.08;;;4.75;;
52432;SDS011;38352;53.244;6.594;2023-12-29T08:01:33;28.75;;;4.47;;
52432;SDS011;38352;53.244;6.594;2023-12-29T08:04:03;19.80;;;4.28;;
52432;SDS011;38352;53.244;6.594;2023-12-29T08:06:29;24.58;;;3.85;;
52432;SDS011;38352;53.244;6.594;2023-12-29T08:08:55;17.08;;;4.68;;
52432;SDS011;38352;53.244;6.594;2023-12-29T08:11:21;22.13;;;4.30;;
52432;SDS011;38352;53.244;6.594;2023-12-29T08:13:48;19.90;;;4.68;;
52432;SDS011;38352;53.244;6.594;2023-12-29T08:16:14;19.73;;;4.55;;
52432;SDS011;38352;53.244;6.594;2023-12-29T08:18:43;16.35;;;3.95;;
52432;SDS011;38352;53.244;6.594;2023-12-29T08:21:15;23.67;;;4.53;;
52432;SDS011;38352;53.244;6.594;2023-12-29T08:23:41;30.23;;;4.72;;
52432;SDS011;38352;53.244;6.594;2023-12-29T08:26:07;22.90;;;4.90;;
52432;SDS011;38352;53.244;6.594;2023-12-29T08:28:33;21.85;;;4.00;;
52432;SDS011;38352;53.244;6.594;2023-12-29T08:31:00;20.38;;;4.43;;
52432;SDS011;38352;53.244;6.594;2023-12-29T08:33:26;13.57;;;4.80;;
52432;SDS011;38352;53.244;6.594;2023-12-29T08:35:52;15.75;;;3.83;;
52432;SDS011;38352;53.244;6.594;2023-12-29T08:38:18;16.20;;;3.75;;
52432;SDS011;38352;53.244;6.594;2023-12-29T08:40:44;16.88;;;4.10;;
52432;SDS011;38352;53.244;6.594;2023-12-29T08:43:10;19.23;;;3.75;;
52432;SDS011;38352;53.244;6.594;2023-12-29T08:45:36;21.42;;;3.72;;
52432;SDS011;38352;53.244;6.594;2023-12-29T08:48:03;17.88;;;3.65;;
52432;SDS011;38352;53.244;6.594;2023-12-29T08:50:29;26.20;;;4.13;;
52432;SDS011;38352;53.244;6.594;2023-12-29T08:52:55;19.00;;;3.83;;
52432;SDS011;38352;53.244;6.594;2023-12-29T08:55:21;14.70;;;3.22;;
52432;SDS011;38352;53.244;6.594;2023-12-29T08:57:47;21.40;;;4.05;;
52432;SDS011;38352;53.244;6.594;2023-12-29T09:00:13;17.27;;;4.05;;
52432;SDS011;38352;53.244;6.594;2023-12-29T09:02:40;20.08;;;4.22;;
52432;SDS011;38352;53.244;6.594;2023-12-29T09:05:06;17.80;;;3.75;;
52432;SDS011;38352;53.244;6.594;2023-12-29T09:07:32;20.08;;;4.10;;
52432;SDS011;38352;53.244;6.594;2023-12-29T09:09:59;21.05;;;4.30;;
52432;SDS011;38352;53.244;6.594;2023-12-29T09:12:27;22.58;;;3.95;;
52432;SDS011;38352;53.244;6.594;2023-12-29T09:14:53;27.95;;;4.00;;
52432;SDS011;38352;53.244;6.594;2023-12-29T09:17:19;23.48;;;3.88;;
52432;SDS011;38352;53.244;6.594;2023-12-29T09:19:45;20.50;;;4.32;;
52432;SDS011;38352;53.244;6.594;2023-12-29T09:22:13;24.10;;;4.22;;
52432;SDS011;38352;53.244;6.594;2023-12-29T09:24:39;21.80;;;4.07;;
52432;SDS011;38352;53.244;6.594;2023-12-29T09:27:05;22.35;;;4.70;;
52432;SDS011;38352;53.244;6.594;2023-12-29T09:29:31;23.05;;;4.95;;
52432;SDS011;38352;53.244;6.594;2023-12-29T09:31:57;12.02;;;2.97;;
52432;SDS011;38352;53.244;6.594;2023-12-29T09:34:23;27.63;;;5.57;;
52432;SDS011;38352;53.244;6.594;2023-12-29T09:36:49;17.77;;;3.75;;
52432;SDS011;38352;53.244;6.594;2023-12-29T09:39:16;19.88;;;4.68;;
52432;SDS011;38352;53.244;6.594;2023-12-29T09:41:43;21.55;;;4.65;;
52432;SDS011;38352;53.244;6.594;2023-12-29T09:44:13;19.35;;;3.65;;
52432;SDS011;38352;53.244;6.594;2023-12-29T09:46:41;14.27;;;4.35;;
52432;SDS011;38352;53.244;6.594;2023-12-29T09:49:07;14.95;;;3.83;;
52432;SDS011;38352;53.244;6.594;2023-12-29T09:51:34;21.33;;;3.72;;
52432;SDS011;38352;53.244;6.594;2023-12-29T09:54:00;22.00;;;3.97;;
52432;SDS011;38352;53.244;6.594;2023-12-29T09:56:27;18.40;;;3.72;;
52432;SDS011;38352;53.244;6.594;2023-12-29T09:58:53;18.67;;;4.28;;
52432;SDS011;38352;53.244;6.594;2023-12-29T10:01:20;15.77;;;3.42;;
52432;SDS011;38352;53.244;6.594;2023-12-29T10:03:50;16.85;;;3.17;;
52432;SDS011;38352;53.244;6.594;2023-12-29T10:06:16;19.25;;;4.20;;
52432;SDS011;38352;53.244;6.594;2023-12-29T10:08:45;17.00;;;3.60;;
52432;SDS011;38352;53.244;6.594;2023-12-29T10:11:11;18.50;;;3.65;;
52432;SDS011;38352;53.244;6.594;2023-12-29T10:13:39;20.05;;;3.55;;
52432;SDS011;38352;53.244;6.594;2023-12-29T10:18:37;14.32;;;3.55;;
52432;SDS011;38352;53.244;6.594;2023-12-29T10:21:47;18.65;;;3.70;;
52432;SDS011;38352;53.244;6.594;2023-12-29T10:26:19;17.27;;;3.70;;
52432;SDS011;38352;53.244;6.594;2023-12-29T10:28:46;21.80;;;3.65;;
52432;SDS011;38352;53.244;6.594;2023-12-29T10:31:14;22.00;;;3.70;;
52432;SDS011;38352;53.244;6.594;2023-12-29T10:33:44;16.35;;;3.22;;
52432;SDS011;38352;53.244;6.594;2023-12-29T10:39:56;11.80;;;3.70;;
52432;SDS011;38352;53.244;6.594;2023-12-29T10:42:22;13.45;;;2.97;;
52432;SDS011;38352;53.244;6.594;2023-12-29T10:44:48;9.00;;;2.05;;
52432;SDS011;38352;53.244;6.594;2023-12-29T10:47:30;13.80;;;2.50;;
52432;SDS011;38352;53.244;6.594;2023-12-29T10:49:58;10.77;;;2.92;;
52432;SDS011;38352;53.244;6.594;2023-12-29T10:52:25;13.80;;;3.45;;
52432;SDS011;38352;53.244;6.594;2023-12-29T10:54:52;14.18;;;2.70;;
52432;SDS011;38352;53.244;6.594;2023-12-29T10:57:30;18.00;;;3.42;;
52432;SDS011;38352;53.244;6.594;2023-12-29T10:59:56;17.85;;;5.53;;
52432;SDS011;38352;53.244;6.594;2023-12-29T11:02:22;14.07;;;3.05;;
52432;SDS011;38352;53.244;6.594;2023-12-29T11:04:49;15.35;;;3.40;;
52432;SDS011;38352;53.244;6.594;2023-12-29T11:07:16;11.93;;;2.20;;
52432;SDS011;38352;53.244;6.594;2023-12-29T11:09:59;12.13;;;3.50;;
52432;SDS011;38352;53.244;6.594;2023-12-29T11:12:26;15.05;;;3.17;;
52432;SDS011;38352;53.244;6.594;2023-12-29T11:14:52;15.98;;;2.80;;
52432;SDS011;38352;53.244;6.594;2023-12-29T11:17:18;12.40;;;2.70;;
52432;SDS011;38352;53.244;6.594;2023-12-29T11:19:45;10.85;;;2.70;;
52432;SDS011;38352;53.244;6.594;2023-12-29T11:22:13;14.43;;;2.60;;
52432;SDS011;38352;53.244;6.594;2023-12-29T11:24:40;10.38;;;2.80;;
52432;SDS011;38352;53.244;6.594;2023-12-29T11:27:06;13.75;;;2.50;;
52432;SDS011;38352;53.244;6.594;2023-12-29T11:29:33;14.88;;;2.83;;
52432;SDS011;38352;53.244;6.594;2023-12-29T11:31:59;10.82;;;2.47;;
52432;SDS011;38352;53.244;6.594;2023-12-29T11:34:34;16.92;;;2.67;;
52432;SDS011;38352;53.244;6.594;2023-12-29T11:37:07;16.10;;;4.10;;
52432;SDS011;38352;53.244;6.594;2023-12-29T11:39:38;8.70;;;2.38;;
52432;SDS011;38352;53.244;6.594;2023-12-29T11:42:10;14.20;;;2.45;;
52432;SDS011;38352;53.244;6.594;2023-12-29T11:44:38;11.52;;;2.92;;
52432;SDS011;38352;53.244;6.594;2023-12-29T11:47:04;15.80;;;3.72;;
52432;SDS011;38352;53.244;6.594;2023-12-29T11:52:31;16.38;;;2.67;;
52432;SDS011;38352;53.244;6.594;2023-12-29T11:55:06;15.27;;;2.65;;
52432;SDS011;38352;53.244;6.594;2023-12-29T11:57:33;10.90;;;2.47;;
52432;SDS011;38352;53.244;6.594;2023-12-29T12:00:01;12.00;;;2.55;;
52432;SDS011;38352;53.244;6.594;2023-12-29T12:02:30;10.07;;;3.55;;
52432;SDS011;38352;53.244;6.594;2023-12-29T12:04:56;13.75;;;2.78;;
52432;SDS011;38352;53.244;6.594;2023-12-29T12:09:49;14.18;;;2.60;;
52432;SDS011;38352;53.244;6.594;2023-12-29T12:15:00;12.40;;;2.65;;
52432;SDS011;38352;53.244;6.594;2023-12-29T12:17:28;11.80;;;2.40;;
52432;SDS011;38352;53.244;6.594;2023-12-29T12:20:02;14.13;;;2.50;;
52432;SDS011;38352;53.244;6.594;2023-12-29T12:22:30;14.82;;;2.88;;
52432;SDS011;38352;53.244;6.594;2023-12-29T12:24:57;11.18;;;2.80;;
52432;SDS011;38352;53.244;6.594;2023-12-29T12:27:24;13.32;;;2.35;;
52432;SDS011;38352;53.244;6.594;2023-12-29T12:29:54;11.80;;;2.55;;
52432;SDS011;38352;53.244;6.594;2023-12-29T12:32:27;13.35;;;3.03;;
52432;SDS011;38352;53.244;6.594;2023-12-29T12:34:53;8.55;;;2.92;;
52432;SDS011;38352;53.244;6.594;2023-12-29T12:37:20;12.93;;;2.33;;
52432;SDS011;38352;53.244;6.594;2023-12-29T12:39:46;11.45;;;2.28;;
52432;SDS011;38352;53.244;6.594;2023-12-29T12:42:13;10.27;;;2.45;;
52432;SDS011;38352;53.244;6.594;2023-12-29T12:44:40;10.50;;;2.65;;
52432;SDS011;38352;53.244;6.594;2023-12-29T12:47:07;16.00;;;2.85;;
52432;SDS011;38352;53.244;6.594;2023-12-29T12:49:34;11.57;;;2.95;;
52432;SDS011;38352;53.244;6.594;2023-12-29T12:52:01;9.23;;;2.30;;
52432;SDS011;38352;53.244;6.594;2023-12-29T12:54:27;15.18;;;2.88;;
52432;SDS011;38352;53.244;6.594;2023-12-29T12:56:54;19.20;;;3.50;;
52432;SDS011;38352;53.244;6.594;2023-12-29T12:59:20;12.98;;;2.63;;
52432;SDS011;38352;53.244;6.594;2023-12-29T13:01:46;10.55;;;2.25;;
52432;SDS011;38352;53.244;6.594;2023-12-29T13:04:13;13.57;;;2.50;;
52432;SDS011;38352;53.244;6.594;2023-12-29T13:06:40;13.48;;;2.70;;
52432;SDS011;38352;53.244;6.594;2023-12-29T13:09:06;11.73;;;2.38;;
52432;SDS011;38352;53.244;6.594;2023-12-29T13:11:42;11.95;;;2.70;;
52432;SDS011;38352;53.244;6.594;2023-12-29T13:14:08;12.13;;;2.92;;
52432;SDS011;38352;53.244;6.594;2023-12-29T13:16:35;14.18;;;2.97;;
52432;SDS011;38352;53.244;6.594;2023-12-29T13:19:17;10.98;;;2.40;;
52432;SDS011;38352;53.244;6.594;2023-12-29T13:21:50;14.00;;;3.45;;
52432;SDS011;38352;53.244;6.594;2023-12-29T13:24:20;9.48;;;2.60;;
52432;SDS011;38352;53.244;6.594;2023-12-29T13:26:47;16.08;;;3.25;;
52432;SDS011;38352;53.244;6.594;2023-12-29T13:29:18;15.65;;;2.85;;
52432;SDS011;38352;53.244;6.594;2023-12-29T13:31:46;11.73;;;2.33;;
52432;SDS011;38352;53.244;6.594;2023-12-29T13:34:13;15.00;;;4.20;;
52432;SDS011;38352;53.244;6.594;2023-12-29T13:36:42;11.32;;;2.65;;
52432;SDS011;38352;53.244;6.594;2023-12-29T13:39:12;13.13;;;2.88;;
52432;SDS011;38352;53.244;6.594;2023-12-29T13:41:40;10.15;;;2.20;;
52432;SDS011;38352;53.244;6.594;2023-12-29T13:44:07;8.70;;;2.85;;
52432;SDS011;38352;53.244;6.594;2023-12-29T13:46:34;13.52;;;2.88;;
52432;SDS011;38352;53.244;6.594;2023-12-29T13:49:01;19.60;;;2.92;;
52432;SDS011;38352;53.244;6.594;2023-12-29T13:51:27;14.73;;;2.30;;
52432;SDS011;38352;53.244;6.594;2023-12-29T13:54:02;14.40;;;2.80;;
52432;SDS011;38352;53.244;6.594;2023-12-29T13:56:29;19.90;;;2.67;;
52432;SDS011;38352;53.244;6.594;2023-12-29T13:58:55;15.38;;;3.17;;
52432;SDS011;38352;53.244;6.594;2023-12-29T14:01:21;12.95;;;3.40;;
52432;SDS011;38352;53.244;6.594;2023-12-29T14:03:54;10.32;;;3.00;;
52432;SDS011;38352;53.244;6.594;2023-12-29T14:06:29;14.85;;;2.65;;
52432;SDS011;38352;53.244;6.594;2023-12-29T14:08:55;11.25;;;2.60;;
52432;SDS011;38352;53.244;6.594;2023-12-29T14:11:22;13.63;;;2.97;;
52432;SDS011;38352;53.244;6.594;2023-12-29T14:13:48;10.35;;;1.95;;
52432;SDS011;38352;53.244;6.594;2023-12-29T14:16:14;11.52;;;2.70;;
52432;SDS011;38352;53.244;6.594;2023-12-29T14:29:17;14.60;;;2.75;;
52432;SDS011;38352;53.244;6.594;2023-12-29T14:31:44;15.18;;;3.67;;
52432;SDS011;38352;53.244;6.594;2023-12-29T14:34:11;9.68;;;2.88;;
52432;SDS011;38352;53.244;6.594;2023-12-29T14:36:38;13.27;;;2.17;;
52432;SDS011;38352;53.244;6.594;2023-12-29T14:39:05;13.38;;;2.58;;
52432;SDS011;38352;53.244;6.594;2023-12-29T14:41:31;14.05;;;2.53;;
52432;SDS011;38352;53.244;6.594;2023-12-29T14:43:57;14.32;;;2.58;;
52432;SDS011;38352;53.244;6.594;2023-12-29T14:46:24;16.95;;;2.70;;
52432;SDS011;38352;53.244;6.594;2023-12-29T14:48:51;13.00;;;2.88;;
52432;SDS011;38352;53.244;6.594;2023-12-29T14:51:17;15.60;;;3.30;;
52432;SDS011;38352;53.244;6.594;2023-12-29T14:53:47;9.55;;;2.58;;
52432;SDS011;38352;53.244;6.594;2023-12-29T14:56:13;14.57;;;2.55;;
52432;SDS011;38352;53.244;6.594;2023-12-29T14:58:39;15.23;;;2.50;;
52432;SDS011;38352;53.244;6.594;2023-12-29T15:01:06;9.70;;;3.05;;
52432;SDS011;38352;53.244;6.594;2023-12-29T15:03:32;11.90;;;2.70;;